Time;durP1;ratioP1;P1;durP2;ratioP2;P2;SDS_P1;SDS_P2;PMS_P1;PMS_P2;Temp;Humidity;BMP_temperature;BMP_pressure;BME280_temperature;BME280_humidity;BME280_pressure;Samples;Min_cycle;Max_cycle;Signal;HPM_P1;HPM_P2
2023/11/08 00:01:09;;;;;;;;;;;;;;;19.41;60.26;100605.34;5038674;28;6097;-66
2023/11/08 00:03:36;;;;;;;;;;;;;;;19.41;60.28;100602.47;5039082;28;2022;-66
2023/11/08 00:06:02;;;;;;;;;;;;;;;19.40;60.29;100598.09;5041300;28;2170;-66
2023/11/08 00:08:31;;;;;;;;;;;;;;;19.40;60.18;100609.59;5040095;28;2118;-66
2023/11/08 00:10:58;;;;;;;;;;;;;;;19.40;60.39;100598.09;5040244;28;2167;-66
2023/11/08 00:13:24;;;;;;;;;;;;;;;19.39;60.38;100602.38;5038611;28;2026;-66
2023/11/08 00:15:51;;;;;;;;;;;;;;;19.39;60.13;100605.25;5041464;28;1934;-66
2023/11/08 00:18:17;;;;;;;;;;;;;;;19.39;60.30;100602.38;5037140;28;2137;-66
2023/11/08 00:20:45;;;;;;;;;;;;;;;19.38;60.32;100601.63;5040648;28;2061;-66
2023/11/08 00:23:11;;;;;;;;;;;;;;;19.39;60.14;100602.38;5034622;28;2233;-66
2023/11/08 00:25:38;;;;;;;;;;;;;;;19.37;60.15;100605.16;5042798;28;1779;-66
2023/11/08 00:28:04;;;;;;;;;;;;;;;19.37;60.32;100599.41;5040613;28;2106;-66
2023/11/08 00:30:31;;;;;;;;;;;;;;;19.37;60.22;100600.13;5039655;28;6395;-66
2023/11/08 00:32:57;;;;;;;;;;;;;;;19.37;60.20;100602.28;5037977;28;2138;-66
2023/11/08 00:35:24;;;;;;;;;;;;;;;19.37;60.32;100602.28;5036325;28;2042;-66
2023/11/08 00:37:50;;;;;;;;;;;;;;;19.36;60.14;100600.81;5038950;28;2282;-66
2023/11/08 00:40:16;;;;;;;;;;;;;;;19.37;60.18;100599.41;5039398;28;2015;-66
2023/11/08 00:42:44;;;;;;;;;;;;;;;19.35;60.42;100597.19;5040806;28;2065;-66
2023/11/08 00:45:11;;;;;;;;;;;;;;;19.36;60.24;100597.94;5040669;28;2164;-66
2023/11/08 00:47:37;;;;;;;;;;;;;;;19.36;60.29;100597.94;5038228;28;2195;-66
2023/11/08 00:50:04;;;;;;;;;;;;;;;19.36;60.11;100597.94;5037988;28;2058;-66
2023/11/08 00:52:31;;;;;;;;;;;;;;;19.35;60.31;100602.19;5038920;28;2107;-66
2023/11/08 00:54:57;;;;;;;;;;;;;;;19.35;60.18;100596.44;5054532;28;2135;-66
2023/11/08 00:57:24;;;;;;;;;;;;;;;19.35;60.24;100593.56;5038307;28;2041;-66
2023/11/08 00:59:50;;;;;;;;;;;;;;;19.35;60.12;100590.69;5039045;28;2031;-66
2023/11/08 01:02:17;;;;;;;;;;;;;;;19.34;60.35;100594.97;5038539;28;6281;-66
2023/11/08 01:04:43;;;;;;;;;;;;;;;19.33;60.14;100587.72;5041713;28;2152;-66
2023/11/08 01:07:10;;;;;;;;;;;;;;;19.34;60.24;100589.22;5031356;28;2098;-66
2023/11/08 01:09:37;;;;;;;;;;;;;;;19.34;60.24;100592.09;5033693;28;2070;-66
2023/11/08 01:12:03;;;;;;;;;;;;;;;19.33;60.19;100590.59;5037995;28;2086;-66
2023/11/08 01:14:30;;;;;;;;;;;;;;;19.33;60.01;100582.72;5039576;28;2081;-66
2023/11/08 01:16:56;;;;;;;;;;;;;;;19.33;60.10;100593.47;5037527;28;2074;-66
2023/11/08 01:19:24;;;;;;;;;;;;;;;19.33;59.95;100582.00;5037504;28;2117;-66
2023/11/08 01:21:52;;;;;;;;;;;;;;;19.33;59.89;100599.22;5036405;28;2331;-66
2023/11/08 01:24:19;;;;;;;;;;;;;;;19.33;60.17;100593.47;5037476;28;2093;-66
2023/11/08 01:26:46;;;;;;;;;;;;;;;19.32;59.98;100598.47;5038297;28;2034;-66
2023/11/08 01:29:12;;;;;;;;;;;;;;;19.32;60.07;100586.25;5039788;28;2275;-66
2023/11/08 01:31:39;;;;;;;;;;;;;;;19.31;59.95;100588.41;5037999;28;6629;-66
2023/11/08 01:34:05;;;;;;;;;;;;;;;19.31;60.01;100590.50;5038447;28;2223;-66
2023/11/08 01:36:31;;;;;;;;;;;;;;;19.32;59.90;100597.75;5038694;28;2181;-66
2023/11/08 01:38:58;;;;;;;;;;;;;;;19.30;59.93;100589.78;5037455;28;2124;-66
2023/11/08 01:41:25;;;;;;;;;;;;;;;19.31;59.86;100584.75;5041637;28;2073;-66
2023/11/08 01:43:51;;;;;;;;;;;;;;;19.31;60.05;100584.75;5033363;28;2191;-66
2023/11/08 01:46:21;;;;;;;;;;;;;;;19.30;59.62;100598.38;5034895;28;2074;-66
2023/11/08 01:48:47;;;;;;;;;;;;;;;19.30;59.74;100586.16;5038723;28;2070;-66
2023/11/08 01:51:14;;;;;;;;;;;;;;;19.30;59.81;100589.03;5038526;28;2066;-66
2023/11/08 01:53:40;;;;;;;;;;;;;;;19.29;60.01;100591.16;5036759;28;2298;-66
2023/11/08 01:56:07;;;;;;;;;;;;;;;19.30;59.95;100594.78;5037234;28;2086;-66
2023/11/08 01:58:34;;;;;;;;;;;;;;;19.28;59.87;100592.53;5037834;28;2039;-66
2023/11/08 02:01:01;;;;;;;;;;;;;;;19.29;59.90;100596.91;5039926;28;6580;-66
2023/11/08 02:03:28;;;;;;;;;;;;;;;19.29;59.92;100593.28;5022078;28;2122;-66
2023/11/08 02:05:55;;;;;;;;;;;;;;;19.28;59.76;100591.81;5038518;28;2063;-66
2023/11/08 02:08:21;;;;;;;;;;;;;;;19.28;59.99;100583.94;5037885;28;2028;-66
2023/11/08 02:10:48;;;;;;;;;;;;;;;19.27;59.87;100578.84;5036996;28;2280;-73
2023/11/08 02:13:14;;;;;;;;;;;;;;;19.28;59.78;100580.31;5040146;28;2144;-73
2023/11/08 02:15:41;;;;;;;;;;;;;;;19.28;59.88;100574.59;5045821;28;1964;-72
2023/11/08 02:18:09;;;;;;;;;;;;;;;19.28;59.66;100583.19;5041314;28;2171;-73
2023/11/08 02:20:35;;;;;;;;;;;;;;;19.28;59.74;100575.31;5049674;28;1663;-73
2023/11/08 02:23:01;;;;;;;;;;;;;;;19.27;59.75;100573.13;5040819;28;2137;-73
2023/11/08 02:25:31;;;;;;;;;;;;;;;19.25;59.82;100577.34;5042612;28;2024;-72
2023/11/08 02:27:58;;;;;;;;;;;;;;;19.24;59.71;100578.75;5037843;28;2042;-73
2023/11/08 02:30:24;;;;;;;;;;;;;;;19.25;59.69;100570.88;5036480;28;6195;-73
2023/11/08 02:32:51;;;;;;;;;;;;;;;19.24;59.81;100575.88;5035755;28;2195;-73
2023/11/08 02:35:17;;;;;;;;;;;;;;;19.24;59.82;100575.13;5039239;28;2118;-73
2023/11/08 02:37:44;;;;;;;;;;;;;;;19.23;59.83;100576.53;5039813;28;2082;-72
2023/11/08 02:40:11;;;;;;;;;;;;;;;19.23;59.72;100573.66;5041199;28;2089;-72
2023/11/08 02:42:39;;;;;;;;;;;;;;;19.23;59.86;100580.13;5034095;28;2169;-72
2023/11/08 02:45:06;;;;;;;;;;;;;;;19.22;59.73;100560.69;5040195;28;2133;-73
2023/11/08 02:47:32;;;;;;;;;;;;;;;19.22;59.73;100567.19;5041202;28;2004;-73
2023/11/08 02:49:59;;;;;;;;;;;;;;;19.22;59.83;100566.44;5043938;28;1795;-73
2023/11/08 02:52:26;;;;;;;;;;;;;;;19.21;59.82;100559.94;5041207;28;2262;-73
2023/11/08 02:54:52;;;;;;;;;;;;;;;19.21;59.84;100557.06;5041799;28;2059;-73
2023/11/08 02:57:19;;;;;;;;;;;;;;;19.22;59.68;100566.44;5040076;28;2078;-73
2023/11/08 02:59:45;;;;;;;;;;;;;;;19.21;59.72;100559.19;5037967;28;2165;-73
2023/11/08 03:02:12;;;;;;;;;;;;;;;19.19;59.52;100565.59;5056768;28;6129;-72
2023/11/08 03:04:39;;;;;;;;;;;;;;;19.19;59.67;100571.31;5038507;28;2124;-73
2023/11/08 03:07:06;;;;;;;;;;;;;;;19.19;59.76;100571.31;5041404;28;2312;-73
2023/11/08 03:09:32;;;;;;;;;;;;;;;19.20;59.78;100564.22;5042010;28;2023;-72
2023/11/08 03:11:59;;;;;;;;;;;;;;;19.19;59.67;100568.44;5038789;28;2008;-72
2023/11/08 03:14:25;;;;;;;;;;;;;;;19.19;59.58;100571.31;5041170;28;2089;-73
2023/11/08 03:16:52;;;;;;;;;;;;;;;19.17;59.81;100565.50;5042010;28;2158;-72
2023/11/08 03:19:21;;;;;;;;;;;;;;;19.18;59.86;100569.84;5039091;28;2211;-73
2023/11/08 03:21:49;;;;;;;;;;;;;;;19.16;59.76;100566.16;5024640;28;2119;-73
2023/11/08 03:24:15;;;;;;;;;;;;;;;19.17;59.76;100574.13;5042428;28;2001;-73
2023/11/08 03:26:44;;;;;;;;;;;;;;;19.17;59.60;100565.50;5040486;28;2090;-73
2023/11/08 03:29:10;;;;;;;;;;;;;;;19.16;59.61;100555.41;5041155;28;2236;-73
2023/11/08 03:31:37;;;;;;;;;;;;;;;19.16;59.58;100558.28;5038280;28;6084;-73
2023/11/08 03:34:03;;;;;;;;;;;;;;;19.16;59.84;100558.28;5042023;28;1967;-73
2023/11/08 03:36:30;;;;;;;;;;;;;;;19.17;59.63;100561.88;5038618;28;2234;-73
2023/11/08 03:38:56;;;;;;;;;;;;;;;19.14;59.53;100554.56;5039959;28;2125;-73
2023/11/08 03:41:25;;;;;;;;;;;;;;;19.16;59.64;100563.28;5041158;28;2207;-72
2023/11/08 03:43:51;;;;;;;;;;;;;;;19.15;59.66;100565.41;5039510;28;2161;-73
2023/11/08 03:46:18;;;;;;;;;;;;;;;19.16;59.57;100566.88;5039778;28;2251;-73
2023/11/08 03:48:44;;;;;;;;;;;;;;;19.16;59.59;100560.41;5039644;28;2074;-73
2023/11/08 03:51:11;;;;;;;;;;;;;;;19.17;59.62;100559.00;5040360;28;2112;-73
2023/11/08 03:53:38;;;;;;;;;;;;;;;19.17;59.64;100554.03;5039833;28;2046;-73
2023/11/08 03:56:04;;;;;;;;;;;;;;;19.19;59.58;100561.97;5039879;28;2035;-73
2023/11/08 03:58:31;;;;;;;;;;;;;;;19.20;59.84;100549.84;5040708;28;2236;-73
2023/11/08 04:00:57;;;;;;;;;;;;;;;19.21;59.85;100562.81;5042453;28;7647;-73
2023/11/08 04:03:24;;;;;;;;;;;;;;;19.24;59.95;100563.63;5039631;28;2212;-73
2023/11/08 04:05:52;;;;;;;;;;;;;;;19.24;60.10;100558.66;5040082;28;1976;-72
2023/11/08 04:08:20;;;;;;;;;;;;;;;19.24;60.15;100561.53;5039712;28;2136;-73
2023/11/08 04:10:46;;;;;;;;;;;;;;;19.25;60.22;100570.88;5039700;28;2018;-73
2023/11/08 04:13:12;;;;;;;;;;;;;;;19.25;60.11;100568.00;5039699;28;2091;-73
2023/11/08 04:15:39;;;;;;;;;;;;;;;19.25;60.07;100565.88;5040320;28;1827;-73
2023/11/08 04:18:05;;;;;;;;;;;;;;;19.24;60.12;100564.41;5038072;28;2071;-72
2023/11/08 04:20:32;;;;;;;;;;;;;;;19.25;60.24;100568.00;5036241;28;2101;-73
2023/11/08 04:22:58;;;;;;;;;;;;;;;19.25;60.08;100571.63;5039258;28;2082;-73
2023/11/08 04:25:24;;;;;;;;;;;;;;;19.27;60.17;100565.22;5040019;28;2019;-73
2023/11/08 04:27:51;;;;;;;;;;;;;;;19.27;60.31;100565.22;5039196;28;2114;-73
2023/11/08 04:30:17;;;;;;;;;;;;;;;19.28;60.33;100574.59;5038177;28;6515;-73
2023/11/08 04:32:44;;;;;;;;;;;;;;;19.29;60.29;100555.97;5038556;28;2166;-72
2023/11/08 04:35:11;;;;;;;;;;;;;;;19.30;60.10;100571.81;5039828;28;2022;-72
2023/11/08 04:37:39;;;;;;;;;;;;;;;19.30;60.23;100566.81;5039869;28;2281;-73
2023/11/08 04:40:06;;;;;;;;;;;;;;;19.31;60.25;100565.44;5038645;28;2286;-73
2023/11/08 04:42:32;;;;;;;;;;;;;;;19.30;60.10;100561.06;5036483;28;2160;-72
2023/11/08 04:44:59;;;;;;;;;;;;;;;19.31;60.16;100568.28;5039610;28;2014;-73
2023/11/08 04:47:25;;;;;;;;;;;;;;;19.31;60.35;100567.53;5039462;28;2169;-73
2023/11/08 04:49:53;;;;;;;;;;;;;;;19.30;60.25;100566.06;5039849;28;2122;-73
2023/11/08 04:52:20;;;;;;;;;;;;;;;19.31;60.25;100565.44;5037453;28;2102;-73
2023/11/08 04:54:47;;;;;;;;;;;;;;;19.30;60.23;100563.94;5040560;28;1614;-73
2023/11/08 04:57:20;;;;;;;;;;;;;;;19.31;60.30;100568.28;5038056;28;2173;-72
2023/11/08 04:59:47;;;;;;;;;;;;;;;19.33;60.30;100564.75;5038639;28;2097;-73
2023/11/08 05:02:17;;;;;;;;;;;;;;;19.33;60.15;100570.50;5034144;28;6698;-73
2023/11/08 05:04:45;;;;;;;;;;;;;;;19.34;60.25;100566.25;5039471;28;2024;-72
2023/11/08 05:07:12;;;;;;;;;;;;;;;19.34;60.28;100572.00;5036871;28;2166;-73
2023/11/08 05:09:40;;;;;;;;;;;;;;;19.36;60.20;100574.97;5038117;28;2220;-73
2023/11/08 05:12:09;;;;;;;;;;;;;;;19.35;60.22;100561.97;5037468;28;2124;-73
2023/11/08 05:14:36;;;;;;;;;;;;;;;19.34;60.17;100564.13;5039397;28;2189;-73
2023/11/08 05:17:03;;;;;;;;;;;;;;;19.35;60.26;100570.59;5038700;28;2108;-72
2023/11/08 05:19:29;;;;;;;;;;;;;;;19.36;60.22;100563.47;5036612;28;2166;-73
2023/11/08 05:21:56;;;;;;;;;;;;;;;19.34;60.23;100567.00;5038557;28;2111;-73
2023/11/08 05:24:22;;;;;;;;;;;;;;;19.34;60.28;100569.13;5040050;28;2140;-73
2023/11/08 05:26:49;;;;;;;;;;;;;;;19.35;60.25;100559.13;5037865;28;1907;-73
2023/11/08 05:29:17;;;;;;;;;;;;;;;19.35;60.23;100562.72;5039315;28;2083;-73
2023/11/08 05:31:43;;;;;;;;;;;;;;;19.36;60.19;100574.97;5038238;28;6862;-73
2023/11/08 05:34:09;;;;;;;;;;;;;;;19.36;60.42;100575.69;5035848;28;2068;-72
2023/11/08 05:36:36;;;;;;;;;;;;;;;19.36;60.46;100580.72;5039008;28;2113;-73
2023/11/08 05:39:06;;;;;;;;;;;;;;;19.38;60.45;100584.41;5037911;28;2133;-73
2023/11/08 05:41:32;;;;;;;;;;;;;;;19.38;60.20;100590.16;5040554;28;2176;-72
2023/11/08 05:43:59;;;;;;;;;;;;;;;19.38;60.12;100587.28;5037800;28;2050;-72
2023/11/08 05:46:25;;;;;;;;;;;;;;;19.41;60.22;100593.84;5036093;28;2079;-73
2023/11/08 05:48:52;;;;;;;;;;;;;;;19.39;60.16;100588.03;5039577;28;2082;-73
2023/11/08 05:51:19;;;;;;;;;;;;;;;19.40;60.01;100592.38;5034384;28;2193;-70
2023/11/08 05:53:45;;;;;;;;;;;;;;;18.95;56.18;100578.81;5036164;28;2206;-73
2023/11/08 05:56:13;;;;;;;;;;;;;;;19.05;58.05;100585.00;5036152;28;2197;-72
2023/11/08 05:58:39;;;;;;;;;;;;;;;19.21;57.59;100585.03;5037086;28;2343;-71
2023/11/08 06:01:06;;;;;;;;;;;;;;;19.27;57.71;100596.06;5036823;28;6191;-72
2023/11/08 06:03:32;;;;;;;;;;;;;;;19.31;57.82;100590.50;5039526;28;1842;-72
2023/11/08 06:05:59;;;;;;;;;;;;;;;19.33;58.18;100596.34;5038896;28;1663;-72
2023/11/08 06:08:26;;;;;;;;;;;;;;;19.35;58.71;100596.44;5038066;28;1556;-71
2023/11/08 06:10:52;;;;;;;;;;;;;;;19.35;58.86;100596.44;5037672;28;2116;-72
2023/11/08 06:13:18;;;;;;;;;;;;;;;19.36;59.04;100595.81;5038513;28;1602;-72
2023/11/08 06:15:45;;;;;;;;;;;;;;;19.37;59.18;100596.53;5039228;28;2067;-72
2023/11/08 06:18:11;;;;;;;;;;;;;;;19.37;59.35;100593.66;5039394;28;2333;-71
2023/11/08 06:20:38;;;;;;;;;;;;;;;19.38;59.30;100606.66;5037118;28;2192;-71
2023/11/08 06:23:04;;;;;;;;;;;;;;;19.39;59.26;100608.84;5037022;28;2529;-71
2023/11/08 06:25:33;;;;;;;;;;;;;;;19.38;59.40;100610.25;5040576;28;1803;-71
2023/11/08 06:28:00;;;;;;;;;;;;;;;19.39;59.43;100608.13;5037675;28;1650;-71
2023/11/08 06:30:27;;;;;;;;;;;;;;;19.38;59.48;100612.38;5036194;28;6379;-72
2023/11/08 06:32:54;;;;;;;;;;;;;;;19.37;59.66;100610.91;5037642;28;2639;-71
2023/11/08 06:35:21;;;;;;;;;;;;;;;19.37;59.55;100605.16;5040480;28;1616;-72
2023/11/08 06:37:48;;;;;;;;;;;;;;;19.37;59.50;100620.25;5039761;28;1970;-71
2023/11/08 06:40:14;;;;;;;;;;;;;;;19.37;59.44;100616.63;5046479;28;1791;-71
2023/11/08 06:42:41;;;;;;;;;;;;;;;19.37;59.54;100619.50;5036758;28;2231;-72
2023/11/08 06:45:08;;;;;;;;;;;;;;;19.39;59.54;100620.34;5037180;28;2191;-71
2023/11/08 06:47:34;;;;;;;;;;;;;;;19.40;59.61;100629.69;5042556;28;2357;-71
2023/11/08 06:50:01;;;;;;;;;;;;;;;19.41;59.73;100625.44;5036972;28;3018;-71
2023/11/08 06:52:28;;;;;;;;;;;;;;;19.40;59.62;100626.81;5038216;28;2074;-72
2023/11/08 06:54:54;;;;;;;;;;;;;;;19.41;59.64;100634.06;5039158;28;1687;-72
2023/11/08 06:57:21;;;;;;;;;;;;;;;19.41;59.58;100631.91;5036707;28;2179;-71
2023/11/08 06:59:48;;;;;;;;;;;;;;;19.41;59.64;100636.94;5043267;28;1971;-72
2023/11/08 07:02:14;;;;;;;;;;;;;;;19.39;59.57;100636.84;5040938;28;6315;-72
2023/11/08 07:04:41;;;;;;;;;;;;;;;19.34;57.35;100638.03;5040074;28;2180;-72
2023/11/08 07:07:10;;;;;;;;;;;;;;;19.28;56.65;100643.47;5042288;28;2009;-71
2023/11/08 07:09:36;;;;;;;;;;;;;;;19.17;55.67;100639.38;5040739;28;1637;-71
2023/11/08 07:12:03;;;;;;;;;;;;;;;19.07;54.95;100639.63;5043456;28;1862;-71
2023/11/08 07:14:30;;;;;;;;;;;;;;;19.04;54.38;100649.53;5040843;28;2097;-72
2023/11/08 07:16:56;;;;;;;;;;;;;;;18.99;53.78;100645.00;5043292;28;1713;-72
2023/11/08 07:19:23;;;;;;;;;;;;;;;19.02;53.38;100649.44;5042716;28;1918;-71
2023/11/08 07:21:49;;;;;;;;;;;;;;;18.97;52.93;100647.78;5043224;28;1882;-71
2023/11/08 07:24:16;;;;;;;;;;;;;;;18.99;52.60;100648.59;5037291;28;1999;-72
2023/11/08 07:26:44;;;;;;;;;;;;;;;18.97;52.38;100657.13;5039161;28;2232;-72
2023/11/08 07:29:10;;;;;;;;;;;;;;;19.01;52.16;100657.31;5041497;28;1652;-71
2023/11/08 07:31:37;;;;;;;;;;;;;;;18.98;51.83;100669.31;5040325;28;6242;-72
2023/11/08 07:34:05;;;;;;;;;;;;;;;18.97;51.62;100667.84;5041103;28;1625;-72
2023/11/08 07:36:31;;;;;;;;;;;;;;;18.90;51.34;100674.66;5041320;28;1773;-71
2023/11/08 07:38:59;;;;;;;;;;;;;;;18.91;51.22;100676.16;5040732;28;2008;-71
2023/11/08 07:41:26;;;;;;;;;;;;;;;18.89;51.34;100678.94;5039230;28;2198;-72
2023/11/08 07:43:52;;;;;;;;;;;;;;;18.79;51.31;100671.31;5042087;28;2094;-71
2023/11/08 07:46:19;;;;;;;;;;;;;;;18.91;51.03;100679.03;5039797;28;1612;-71
2023/11/08 07:48:45;;;;;;;;;;;;;;;19.02;51.23;100669.53;5039913;28;2223;-72
2023/11/08 07:51:12;;;;;;;;;;;;;;;19.03;51.24;100671.78;5041142;28;1684;-71
2023/11/08 07:53:39;;;;;;;;;;;;;;;19.07;51.30;100682.69;5040576;28;2057;-72
2023/11/08 07:56:07;;;;;;;;;;;;;;;19.09;51.45;100685.66;5040068;28;2359;-71
2023/11/08 07:58:34;;;;;;;;;;;;;;;19.14;51.92;100678.72;5038644;28;2216;-71
2023/11/08 08:01:00;;;;;;;;;;;;;;;19.15;52.03;100677.34;5040076;28;6180;-72
2023/11/08 08:03:27;;;;;;;;;;;;;;;19.16;52.29;100673.09;5039750;28;2069;-73
2023/11/08 08:05:53;;;;;;;;;;;;;;;19.16;53.17;100678.09;5038266;28;2504;-72
2023/11/08 08:08:20;;;;;;;;;;;;;;;19.21;53.29;100680.50;5037752;28;2166;-73
2023/11/08 08:10:46;;;;;;;;;;;;;;;19.22;53.41;100673.38;5044392;28;2096;-73
2023/11/08 08:13:13;;;;;;;;;;;;;;;19.26;53.54;100678.56;5039075;28;1889;-72
2023/11/08 08:15:53;;;;;;;;;;;;;;;19.30;54.15;100687.38;5037428;28;2313;-70
2023/11/08 08:18:20;;;;;;;;;;;;;;;19.30;54.15;100675.16;5036708;28;2262;-70
2023/11/08 08:20:47;;;;;;;;;;;;;;;19.30;54.46;100689.50;5031550;28;2327;-68
2023/11/08 08:23:13;;;;;;;;;;;;;;;19.27;54.34;100688.69;5007879;28;1589;-68
2023/11/08 08:25:40;;;;;;;;;;;;;;;19.28;54.89;100690.16;5036313;28;1660;-69
2023/11/08 08:28:07;;;;;;;;;;;;;;;19.29;55.27;100702.38;5039402;28;2410;-69
2023/11/08 08:30:33;;;;;;;;;;;;;;;19.28;55.33;100686.53;5037757;28;6201;-68
2023/11/08 08:33:01;;;;;;;;;;;;;;;19.30;55.15;100680.91;5039163;28;2074;-68
2023/11/08 08:35:28;;;;;;;;;;;;;;;19.31;55.28;100680.25;5030411;28;2201;-68
2023/11/08 08:37:54;;;;;;;;;;;;;;;19.32;55.35;100692.47;5030062;28;2122;-69
2023/11/08 08:40:21;;;;;;;;;;;;;;;19.33;55.33;100693.97;5020743;28;2898;-68
2023/11/08 08:42:47;;;;;;;;;;;;;;;19.34;55.46;100695.47;5037147;28;2207;-68
2023/11/08 08:45:14;;;;;;;;;;;;;;;19.33;55.88;100694.69;5039711;28;2156;-69
2023/11/08 08:47:40;;;;;;;;;;;;;;;19.39;55.67;100702.88;5035191;28;2132;-68
2023/11/08 08:50:12;;;;;;;;;;;;;;;19.40;55.96;100701.47;5039056;28;2070;-69
2023/11/08 08:52:42;;;;;;;;;;;;;;;19.39;55.90;100700.72;5038952;28;2168;-69
2023/11/08 08:55:14;;;;;;;;;;;;;;;19.40;56.17;100695.72;5038309;28;2143;-69
2023/11/08 08:57:45;;;;;;;;;;;;;;;19.40;56.10;100705.09;5036819;28;2125;-69
2023/11/08 09:00:14;;;;;;;;;;;;;;;19.41;56.15;100711.59;5040211;28;6069;-68
2023/11/08 09:02:40;;;;;;;;;;;;;;;19.42;56.34;100707.31;5040397;28;1605;-69
2023/11/08 09:05:08;;;;;;;;;;;;;;;19.41;56.38;100715.19;5040665;28;2038;-69
2023/11/08 09:07:35;;;;;;;;;;;;;;;19.41;56.37;100720.94;5038714;28;2102;-69
2023/11/08 09:10:03;;;;;;;;;;;;;;;19.40;56.59;100713.72;5039100;28;2125;-68
2023/11/08 09:12:29;;;;;;;;;;;;;;;19.43;56.52;100718.16;5035816;28;2260;-69
2023/11/08 09:14:55;;;;;;;;;;;;;;;19.43;56.57;100711.69;5037961;28;2113;-68
2023/11/08 09:17:23;;;;;;;;;;;;;;;19.44;56.62;100718.91;5036347;28;2215;-69
2023/11/08 09:19:50;;;;;;;;;;;;;;;19.44;56.66;100719.63;5037485;28;2215;-72
2023/11/08 09:22:16;;;;;;;;;;;;;;;19.49;56.93;100705.47;5035098;28;2137;-71
2023/11/08 09:24:42;;;;;;;;;;;;;;;19.46;56.91;100716.88;5038332;28;1621;-69
2023/11/08 09:27:09;;;;;;;;;;;;;;;19.48;56.85;100719.09;5037840;28;1657;-70
2023/11/08 09:29:36;;;;;;;;;;;;;;;19.49;56.97;100717.69;5040822;28;1628;-69
2023/11/08 09:32:05;;;;;;;;;;;;;;;19.48;56.92;100724.84;5040577;28;7323;-69
2023/11/08 09:34:32;;;;;;;;;;;;;;;19.48;57.17;100736.34;5036943;28;1585;-69
2023/11/08 09:37:00;;;;;;;;;;;;;;;19.48;56.99;100727.72;5040624;28;1724;-69
2023/11/08 09:39:28;;;;;;;;;;;;;;;19.48;56.99;100730.59;5040326;28;1959;-70
2023/11/08 09:41:57;;;;;;;;;;;;;;;19.48;57.14;100735.59;5037304;28;1780;-69
2023/11/08 09:44:24;;;;;;;;;;;;;;;19.48;57.27;100730.59;5039540;28;1696;-69
2023/11/08 09:46:51;;;;;;;;;;;;;;;19.48;57.19;100727.72;5038936;28;1735;-69
2023/11/08 09:49:19;;;;;;;;;;;;;;;19.49;57.24;100725.59;5040181;28;1679;-69
2023/11/08 09:51:47;;;;;;;;;;;;;;;19.49;57.27;100725.59;5039471;28;1589;-69
2023/11/08 09:54:14;;;;;;;;;;;;;;;19.48;57.39;100736.34;5038820;28;1574;-69
2023/11/08 09:56:46;;;;;;;;;;;;;;;19.48;57.36;100724.84;5040054;28;2031;-69
2023/11/08 09:59:13;;;;;;;;;;;;;;;19.49;57.17;100729.19;5046831;28;1922;-69
2023/11/08 10:01:40;;;;;;;;;;;;;;;19.50;57.25;100727.81;5038396;28;6161;-69
2023/11/08 10:04:09;;;;;;;;;;;;;;;19.50;57.37;100727.81;5040222;28;1902;-69
2023/11/08 10:06:36;;;;;;;;;;;;;;;19.50;57.32;100733.56;5038987;28;1791;-70
2023/11/08 10:09:05;;;;;;;;;;;;;;;19.50;57.44;100730.69;5039162;28;1834;-69
2023/11/08 10:11:32;;;;;;;;;;;;;;;19.51;57.32;100728.56;5038911;28;1580;-69
2023/11/08 10:13:59;;;;;;;;;;;;;;;19.51;57.29;100729.28;5045076;28;1776;-69
2023/11/08 10:16:27;;;;;;;;;;;;;;;19.52;57.49;100727.91;5039702;28;1724;-70
2023/11/08 10:18:57;;;;;;;;;;;;;;;19.52;57.35;100730.78;5038458;28;2013;-69
2023/11/08 10:21:46;;;;;;;;;;;;;;;19.53;57.44;100729.38;5039537;28;1656;-69
2023/11/08 10:24:16;;;;;;;;;;;;;;;19.51;57.61;100723.53;5038004;28;1635;-69
2023/11/08 10:26:42;;;;;;;;;;;;;;;19.52;57.38;100727.19;5038546;28;1593;-69
2023/11/08 10:29:11;;;;;;;;;;;;;;;19.53;57.43;100714.28;5039630;28;1815;-69
2023/11/08 10:31:40;;;;;;;;;;;;;;;19.53;57.46;100714.28;5039994;28;6031;-69
2023/11/08 10:34:07;;;;;;;;;;;;;;;19.52;57.63;100712.81;5040897;28;1720;-69
2023/11/08 10:36:34;;;;;;;;;;;;;;;19.52;57.58;100719.31;5042712;28;1807;-69
2023/11/08 10:39:01;;;;;;;;;;;;;;;19.51;57.62;100717.81;5042697;28;2427;-69
2023/11/08 10:41:27;;;;;;;;;;;;;;;19.51;57.54;100717.81;5043449;28;1565;-69
2023/11/08 10:44:10;;;;;;;;;;;;;;;19.52;57.58;100727.19;5042251;28;1608;-69
2023/11/08 10:46:38;;;;;;;;;;;;;;;19.51;57.65;100717.06;5043419;28;1851;-69
2023/11/08 10:49:06;;;;;;;;;;;;;;;19.51;57.81;100717.81;5041681;28;1622;-69
2023/11/08 10:51:35;;;;;;;;;;;;;;;19.51;57.76;100719.94;5041564;28;1702;-69
2023/11/08 10:54:01;;;;;;;;;;;;;;;19.51;57.72;100717.06;5042259;28;1665;-69
2023/11/08 10:56:28;;;;;;;;;;;;;;;19.51;57.64;100717.81;5041545;28;1715;-69
2023/11/08 10:58:57;;;;;;;;;;;;;;;19.50;57.80;100710.59;5041898;28;1977;-68
2023/11/08 11:01:28;;;;;;;;;;;;;;;19.50;57.94;100713.47;5043711;28;6256;-69
2023/11/08 11:03:54;;;;;;;;;;;;;;;19.50;57.80;100713.47;5042646;28;1633;-69
2023/11/08 11:06:21;;;;;;;;;;;;;;;19.50;57.61;100724.22;5041447;28;1593;-69
2023/11/08 11:08:49;;;;;;;;;;;;;;;19.50;57.62;100727.81;5042389;28;1698;-69
2023/11/08 11:11:16;;;;;;;;;;;;;;;19.51;57.83;100731.44;5041447;28;1807;-69
2023/11/08 11:13:45;;;;;;;;;;;;;;;19.50;57.73;100727.81;5041909;28;1636;-69
2023/11/08 11:16:22;;;;;;;;;;;;;;;19.50;57.79;100722.06;5042243;28;1668;-69
2023/11/08 11:19:01;;;;;;;;;;;;;;;19.49;57.69;100726.31;5048192;28;1910;-69
2023/11/08 11:21:28;;;;;;;;;;;;;;;19.48;57.79;100719.09;5041878;28;1850;-70
2023/11/08 11:23:54;;;;;;;;;;;;;;;19.49;57.67;100723.44;5041409;28;1623;-69
2023/11/08 11:26:41;;;;;;;;;;;;;;;19.49;57.66;100737.06;5041240;28;1859;-69
2023/11/08 11:29:07;;;;;;;;;;;;;;;19.48;57.60;100730.59;5042109;28;1705;-69
2023/11/08 11:31:34;;;;;;;;;;;;;;;19.48;57.82;100736.34;5048580;28;6670;-69
2023/11/08 11:34:29;;;;;;;;;;;;;;;19.48;57.57;100729.84;5042492;28;1577;-69
2023/11/08 11:39:31;;;;;;;;;;;;;;;19.48;57.78;100739.19;5041295;28;1977;-69
2023/11/08 11:41:58;;;;;;;;;;;;;;;19.47;57.86;100729.13;5041932;28;1760;-69
2023/11/08 11:44:35;;;;;;;;;;;;;;;19.48;57.74;100736.34;5040869;28;1874;-69
2023/11/08 11:47:08;;;;;;;;;;;;;;;19.48;57.75;100736.34;5041321;28;1705;-69
2023/11/08 11:49:44;;;;;;;;;;;;;;;19.48;57.73;100742.06;5040647;28;1660;-69
2023/11/08 11:52:11;;;;;;;;;;;;;;;19.47;57.83;100743.47;5040717;28;2458;-67
2023/11/08 11:54:40;;;;;;;;;;;;;;;19.39;57.64;100734.47;5040919;28;2555;-69
2023/11/08 11:57:08;;;;;;;;;;;;;;;19.38;57.73;100738.72;5018700;28;2743;-70
2023/11/08 11:59:34;;;;;;;;;;;;;;;19.40;57.15;100735.94;5040726;28;1913;-70
2023/11/08 12:02:01;;;;;;;;;;;;;;;19.19;56.81;100740.69;5039074;28;6343;-72
2023/11/08 12:04:27;;;;;;;;;;;;;;;19.25;55.95;100732.38;5037945;28;2168;-69
2023/11/08 12:06:55;;;;;;;;;;;;;;;19.32;56.15;100735.56;5039123;28;2041;-71
2023/11/08 12:09:23;;;;;;;;;;;;;;;19.35;56.61;100746.47;5041107;28;1758;-70
2023/11/08 12:11:50;;;;;;;;;;;;;;;19.40;56.76;100735.94;5040167;28;2144;-69
2023/11/08 12:14:21;;;;;;;;;;;;;;;19.36;57.42;100739.38;5038971;28;2136;-70
2023/11/08 12:16:50;;;;;;;;;;;;;;;19.44;57.26;100750.50;5039267;28;2336;-73
2023/11/08 12:19:16;;;;;;;;;;;;;;;19.46;57.16;100747.72;5038380;28;2191;-72
2023/11/08 12:21:43;;;;;;;;;;;;;;;19.43;57.11;100740.41;5039608;28;2199;-72
2023/11/08 12:24:10;;;;;;;;;;;;;;;19.44;57.34;100742.59;5039732;28;2076;-72
2023/11/08 12:26:37;;;;;;;;;;;;;;;19.46;57.39;100741.97;5038611;28;2266;-72
2023/11/08 12:29:05;;;;;;;;;;;;;;;19.47;57.43;100734.84;5040059;28;1999;-72
2023/11/08 12:31:34;;;;;;;;;;;;;;;19.48;57.60;100727.72;5039245;28;6213;-72
2023/11/08 12:34:03;;;;;;;;;;;;;;;19.47;57.34;100734.84;5040316;28;2171;-72
2023/11/08 12:36:29;;;;;;;;;;;;;;;19.49;57.31;100740.69;5040679;28;2247;-72
2023/11/08 12:38:56;;;;;;;;;;;;;;;19.50;57.33;100733.56;5039405;28;2145;-72
2023/11/08 12:41:22;;;;;;;;;;;;;;;19.50;57.50;100721.34;5038103;28;2203;-72
2023/11/08 12:43:58;;;;;;;;;;;;;;;19.49;57.19;100726.31;5039790;28;2342;-72
2023/11/08 12:46:28;;;;;;;;;;;;;;;19.48;57.33;100724.84;5038788;28;2149;-72
2023/11/08 12:49:12;;;;;;;;;;;;;;;19.51;57.60;100745.78;5040726;28;2150;-72
2023/11/08 12:51:40;;;;;;;;;;;;;;;19.49;57.88;100742.81;5038143;28;2323;-72